Flight Number: EUR1352 Duration: 1:30
Departure: Venice Marco Polo (LIPZ) at 18:30 Distance: 440 Nm
Arrival: Palermo Airport (LICJ) at 20:00 Equipment: B737

Weather Information
Venezia / Tessera, Italy (LIPZ) 45-30N 012-20E 6M Jan 21, 2019 - 06:50 AM EST / 2019.01.21 1150 UTC
Wind: from the NE (040 degrees) at 12 MPH (10 KT):0
Visibility: greater than 7 mile(s):0 Temperature: 42 F (6 C) Dew Point: 28 F (-2 C) Relative Humidity: 56% Pressure (altimeter): 30.03 in. Hg (1017 hPa)
ob: LIPZ 211150Z 04010KT CAVOK 06/M02 Q1017 NOSIG cycle: 12
Sunrise: 06:46 Sunset: 15:57 (UTC)

Palermo / Punta Raisi, Italy (LICJ) 38-11N 013-06E 21M Jan 21, 2019 - 06:50 AM EST / 2019.01.21 1150 UTC
Wind: from the SE (140 degrees) at 9 MPH (8 KT) (direction variable):0
Visibility: greater than 7 mile(s):0
Sky conditions: partly cloudy Temperature: 59 F (15 C) Dew Point: 44 F (7 C) Relative Humidity: 58% Pressure (altimeter): 29.80 in. Hg (1009 hPa)
ob: LICJ 211150Z 14008KT 060V210 9999 SCT040 15/07 Q1009 cycle: 12
Sunrise: 06:23 Sunset: 16:14 (UTC)

TAF:2019/01/21 12:21 TAF LICJ 211100Z 2112/2212 17013KT 9999 SCT030 TEMPO 2112/2118 4000 SHRA TEMPO 2203/2208 4000 TSRA BECMG 2206/2208 26015KT

Previous Pireps for this route
Date Aircraft Flight time Fuel used Landing rate On time
2013-04-01B73701.357762-275Yes
2013-04-04B7371.4110800-319No
2013-04-08B7371.359500-257No
2013-07-12B7371.40120000Yes
2014-05-15B7371.55115000No
2015-01-26B7371.2281120No
2015-10-13B73701.319100-399Yes
2016-03-17B73701.429608-160No
2016-08-31B73701.1813466-94Yes
(pireps marked green are flown by you)

Route map